createdAt,value
2017-06-02T00:01:32.517Z,12.46
2017-06-02T00:04:07.567Z,9.62
2017-06-02T00:06:43.299Z,9.68
2017-06-02T00:09:18.427Z,9.86
2017-06-02T00:11:53.782Z,11.04
2017-06-02T00:14:28.815Z,8.42
2017-06-02T00:17:04.084Z,9.84
2017-06-02T00:19:39.620Z,9.30
2017-06-02T00:22:14.832Z,9.58
2017-06-02T00:24:49.975Z,8.38
2017-06-02T00:27:25.308Z,9.18
2017-06-02T00:30:00.454Z,11.56
2017-06-02T00:32:35.483Z,8.24
2017-06-02T00:35:11.341Z,8.32
2017-06-02T00:37:46.473Z,8.20
2017-06-02T00:40:21.602Z,7.60
2017-06-02T00:42:56.953Z,6.24
2017-06-02T00:45:31.934Z,6.46
2017-06-02T00:48:07.225Z,7.46
2017-06-02T00:50:42.255Z,9.28
2017-06-02T00:53:17.592Z,7.94
2017-06-02T00:55:52.633Z,10.66
2017-06-02T00:58:27.966Z,9.06
2017-06-02T01:01:03.206Z,8.36
2017-06-02T01:03:38.429Z,9.28
2017-06-02T01:06:13.596Z,7.92
2017-06-02T01:08:48.823Z,9.06
2017-06-02T01:11:23.847Z,9.78
2017-06-02T01:13:59.095Z,10.28
2017-06-02T01:16:34.052Z,9.94
2017-06-02T01:19:09.258Z,9.76
2017-06-02T01:21:44.424Z,11.54
2017-06-02T01:24:19.592Z,9.28
2017-06-02T01:26:54.719Z,11.02
2017-06-02T01:29:29.980Z,10.72
2017-06-02T01:32:04.959Z,8.68
2017-06-02T01:34:40.199Z,9.32
2017-06-02T01:37:15.223Z,8.76
2017-06-02T01:39:50.703Z,9.66
2017-06-02T01:42:25.627Z,9.20
2017-06-02T01:45:00.930Z,8.04
2017-06-02T01:47:36.081Z,8.56
2017-06-02T01:50:11.307Z,8.34
2017-06-02T01:52:46.239Z,7.28
2017-06-02T01:55:21.591Z,8.80
2017-06-02T01:57:57.051Z,8.10
2017-06-02T02:00:32.367Z,9.40
2017-06-02T02:03:07.311Z,7.88
2017-06-02T02:05:42.642Z,7.56
2017-06-02T02:08:17.784Z,9.72
2017-06-02T02:10:52.890Z,7.70
2017-06-02T02:13:27.856Z,8.60
2017-06-02T02:16:02.889Z,7.78
2017-06-02T02:18:37.881Z,8.30
2017-06-02T02:21:13.135Z,8.52
2017-06-02T02:23:48.318Z,9.34
2017-06-02T02:26:23.630Z,8.62
2017-06-02T02:28:58.772Z,10.30
2017-06-02T02:31:34.212Z,9.02
2017-06-02T02:34:09.363Z,9.86
2017-06-02T02:36:44.595Z,9.16
2017-06-02T02:39:19.589Z,8.86
2017-06-02T02:41:54.847Z,10.00
2017-06-02T02:44:29.983Z,11.20
2017-06-02T02:47:05.477Z,10.62
2017-06-02T02:49:40.475Z,8.50
2017-06-02T02:52:15.911Z,8.98
2017-06-02T02:54:51.056Z,9.80
2017-06-02T02:57:26.207Z,9.28
2017-06-02T03:00:01.327Z,8.92
2017-06-02T03:02:36.378Z,9.02
2017-06-02T03:05:11.507Z,8.78
2017-06-02T03:07:46.737Z,8.16
2017-06-02T03:10:21.765Z,10.02
2017-06-02T03:12:56.906Z,7.60
2017-06-02T03:15:31.846Z,9.46
2017-06-02T03:18:06.879Z,9.12
2017-06-02T03:20:41.866Z,9.50
2017-06-02T03:23:17.154Z,10.12
2017-06-02T03:25:52.186Z,8.12
2017-06-02T03:28:27.415Z,9.84
2017-06-02T03:31:02.303Z,8.66
2017-06-02T03:33:37.699Z,10.00
2017-06-02T03:36:12.836Z,10.40
2017-06-02T03:38:48.070Z,10.80
2017-06-02T03:41:22.956Z,10.14
2017-06-02T03:43:58.217Z,10.58
2017-06-02T03:46:33.295Z,10.98
2017-06-02T03:49:08.717Z,10.34
2017-06-02T03:51:43.815Z,9.32
2017-06-02T03:54:18.930Z,9.26
2017-06-02T03:56:53.932Z,10.78
2017-06-02T03:59:29.055Z,11.06
2017-06-02T04:02:04.198Z,9.80
2017-06-02T04:04:39.526Z,10.20
2017-06-02T04:07:15.489Z,9.26
2017-06-02T04:09:50.834Z,10.52
2017-06-02T04:12:25.972Z,10.60
2017-06-02T04:15:01.073Z,11.14
2017-06-02T04:17:36.010Z,11.22
2017-06-02T04:20:11.272Z,11.32
2017-06-02T04:22:46.207Z,9.00
2017-06-02T04:25:21.545Z,10.88
2017-06-02T04:27:56.945Z,12.48
2017-06-02T04:30:32.038Z,12.12
2017-06-02T04:33:07.066Z,13.14
2017-06-02T04:35:42.504Z,14.16
2017-06-02T04:38:17.847Z,12.08
2017-06-02T04:40:53.182Z,13.42
2017-06-02T04:43:28.317Z,10.62
2017-06-02T04:46:03.558Z,10.74
2017-06-02T04:48:38.905Z,10.54
2017-06-02T04:51:14.036Z,12.82
2017-06-02T04:53:49.182Z,12.30
2017-06-02T04:56:24.254Z,9.42
2017-06-02T04:58:59.362Z,10.20
2017-06-02T05:01:34.682Z,11.10
2017-06-02T05:04:09.772Z,11.52
2017-06-02T05:06:44.792Z,12.76
2017-06-02T05:09:20.134Z,11.74
2017-06-02T05:11:55.570Z,10.10
2017-06-02T05:14:30.678Z,11.02
2017-06-02T05:17:06.012Z,10.54
2017-06-02T05:19:41.020Z,13.44
2017-06-02T05:22:16.388Z,13.00
2017-06-02T05:24:51.443Z,12.90
2017-06-02T05:27:26.864Z,11.10
2017-06-02T05:30:02.005Z,11.04
2017-06-02T05:32:37.351Z,11.78
2017-06-02T05:35:12.514Z,9.60
2017-06-02T05:37:47.675Z,10.80
2017-06-02T05:40:22.652Z,8.80
2017-06-02T05:42:57.882Z,9.28
2017-06-02T05:45:33.055Z,11.58
2017-06-02T05:48:08.364Z,9.34
2017-06-02T05:50:43.386Z,12.52
2017-06-02T05:53:18.737Z,9.66
2017-06-02T05:55:54.290Z,8.56
2017-06-02T05:58:29.391Z,7.78
2017-06-02T06:01:04.505Z,7.64
2017-06-02T06:03:39.896Z,8.02
2017-06-02T06:06:15.135Z,10.34
2017-06-02T06:08:50.384Z,9.42
2017-06-02T06:11:25.540Z,9.32
2017-06-02T06:14:00.756Z,9.70
2017-06-02T06:16:35.901Z,8.80
2017-06-02T06:19:11.539Z,12.14
2017-06-02T06:21:46.707Z,8.74
2017-06-02T06:24:21.914Z,8.64
2017-06-02T06:26:56.865Z,9.78
2017-06-02T06:29:32.055Z,9.02
2017-06-02T06:32:07.331Z,9.30
2017-06-02T06:34:42.671Z,9.38
2017-06-02T06:37:17.614Z,6.70
2017-06-02T06:39:53.036Z,6.60
2017-06-02T06:42:27.979Z,7.74
2017-06-02T06:45:03.539Z,10.86
2017-06-02T06:47:38.539Z,9.52
2017-06-02T06:50:13.887Z,7.94
2017-06-02T06:52:42.894Z,9.78
2017-06-02T06:55:11.783Z,12.38
2017-06-02T06:57:40.680Z,9.00
2017-06-02T07:00:09.560Z,10.82
2017-06-02T07:02:38.452Z,7.34
2017-06-02T07:05:07.274Z,13.96
2017-06-02T07:07:36.552Z,11.70
2017-06-02T07:10:05.728Z,9.92
2017-06-02T07:12:34.827Z,10.16
2017-06-02T07:15:03.942Z,10.74
2017-06-02T07:17:32.995Z,7.18
2017-06-02T07:20:02.112Z,11.24
2017-06-02T07:22:31.344Z,10.68
2017-06-02T07:25:00.339Z,8.64
2017-06-02T07:27:29.192Z,8.16
2017-06-02T07:29:58.026Z,9.50
2017-06-02T07:32:26.904Z,7.42
2017-06-02T07:34:55.812Z,8.18
2017-06-02T07:37:24.845Z,8.32
2017-06-02T07:39:53.695Z,7.96
2017-06-02T07:42:22.533Z,8.42
2017-06-02T07:44:51.370Z,8.40
2017-06-02T07:47:20.423Z,9.04
2017-06-02T07:49:49.314Z,7.40
2017-06-02T07:52:18.183Z,8.68
2017-06-02T07:54:47.087Z,6.02
2017-06-02T07:57:15.952Z,8.32
2017-06-02T07:59:45.168Z,8.78
2017-06-02T08:02:14.022Z,7.14
2017-06-02T08:04:42.842Z,8.40
2017-06-02T08:07:11.866Z,7.62
2017-06-02T08:09:40.687Z,7.24
2017-06-02T08:12:09.651Z,8.80
2017-06-02T08:14:38.512Z,10.58
2017-06-02T08:17:07.903Z,11.00
2017-06-02T08:19:36.756Z,10.64
2017-06-02T08:22:05.604Z,10.62
2017-06-02T08:24:34.456Z,8.62
2017-06-02T08:27:03.300Z,9.50
2017-06-02T08:29:32.254Z,11.40
2017-06-02T08:32:01.152Z,8.70
2017-06-02T08:34:29.991Z,10.08
2017-06-02T08:36:58.934Z,10.64
2017-06-02T08:39:27.751Z,12.20
2017-06-02T08:41:56.854Z,13.04
2017-06-02T08:44:25.687Z,11.80
2017-06-02T08:46:54.662Z,12.62
2017-06-02T08:49:23.511Z,12.02
2017-06-02T08:51:52.369Z,11.30
2017-06-02T08:54:21.271Z,12.88
2017-06-02T08:56:50.454Z,12.06
2017-06-02T08:59:19.759Z,13.08
2017-06-02T09:01:48.963Z,11.82
2017-06-02T09:04:18.151Z,12.42
2017-06-02T09:06:47.283Z,10.02
2017-06-02T09:09:16.423Z,11.20
2017-06-02T09:11:45.739Z,10.96
2017-06-02T09:14:14.839Z,8.22
2017-06-02T09:16:43.926Z,9.34
2017-06-02T09:19:13.163Z,7.04
2017-06-02T09:21:42.422Z,8.58
2017-06-02T09:24:11.539Z,8.74
2017-06-02T09:26:40.725Z,10.00
2017-06-02T09:29:10.175Z,9.36
2017-06-02T09:31:39.327Z,9.22
2017-06-02T09:34:08.511Z,8.90
2017-06-02T09:36:37.651Z,8.20
2017-06-02T09:39:06.759Z,9.50
2017-06-02T09:41:36.219Z,9.17
2017-06-02T09:44:05.329Z,10.52
2017-06-02T09:46:34.498Z,10.04
2017-06-02T09:49:03.715Z,10.78
2017-06-02T09:51:33.000Z,9.24
2017-06-02T09:54:02.118Z,8.94
2017-06-02T09:56:31.295Z,10.06
2017-06-02T09:59:00.598Z,10.94
2017-06-02T10:01:29.784Z,8.18
2017-06-02T10:03:58.903Z,7.90
2017-06-02T10:06:28.084Z,9.74
2017-06-02T10:08:57.199Z,10.52
2017-06-02T10:11:26.380Z,7.60
2017-06-02T10:13:55.476Z,8.24
2017-06-02T10:16:24.728Z,8.10
2017-06-02T10:18:53.863Z,8.40
2017-06-02T10:21:23.802Z,8.68
2017-06-02T10:23:52.914Z,5.74
2017-06-02T10:26:22.011Z,8.50
2017-06-02T10:28:51.415Z,9.40
2017-06-02T10:31:20.519Z,10.46
2017-06-02T10:33:49.611Z,7.88
2017-06-02T10:36:18.724Z,9.62
2017-06-02T10:38:47.835Z,8.86
2017-06-02T10:41:16.954Z,9.58
2017-06-02T10:43:46.143Z,8.62
2017-06-02T10:46:15.430Z,9.04
2017-06-02T10:48:44.641Z,8.88
2017-06-02T10:51:13.747Z,10.42
2017-06-02T10:53:42.871Z,11.56
2017-06-02T10:56:11.976Z,11.24
2017-06-02T10:58:41.387Z,10.04
2017-06-02T11:01:10.492Z,9.94
2017-06-02T11:03:39.604Z,10.98
2017-06-02T11:06:08.824Z,9.48
2017-06-02T11:08:38.122Z,11.24
2017-06-02T11:11:07.226Z,13.40
2017-06-02T11:13:36.402Z,9.66
2017-06-02T11:16:05.805Z,11.12
2017-06-02T11:18:34.918Z,12.42
2017-06-02T11:21:04.031Z,13.20
2017-06-02T11:23:33.160Z,10.22
2017-06-02T11:26:02.292Z,9.60
2017-06-02T11:28:31.527Z,9.32
2017-06-02T11:31:00.707Z,8.82
2017-06-02T11:33:29.886Z,11.28
2017-06-02T11:35:59.015Z,10.18
2017-06-02T11:38:28.123Z,10.18
2017-06-02T11:40:57.435Z,9.90
2017-06-02T11:43:26.530Z,8.38
2017-06-02T11:45:55.795Z,8.94
2017-06-02T11:48:24.965Z,8.54
2017-06-02T11:50:54.067Z,10.72
2017-06-02T11:53:23.234Z,10.44
2017-06-02T11:55:52.442Z,12.06
2017-06-02T11:58:21.857Z,9.52
2017-06-02T12:00:51.146Z,9.70
2017-06-02T12:03:20.242Z,10.14
2017-06-02T12:05:49.551Z,13.02
2017-06-02T12:08:18.779Z,11.38
2017-06-02T12:10:48.150Z,8.02
2017-06-02T12:13:17.252Z,9.32
2017-06-02T12:15:46.752Z,9.82
2017-06-02T12:18:16.091Z,15.12
2017-06-02T12:20:45.274Z,10.24
2017-06-02T12:23:14.751Z,11.68
2017-06-02T12:25:43.947Z,11.04
2017-06-02T12:28:13.029Z,13.06
2017-06-02T12:30:42.159Z,10.14
2017-06-02T12:33:11.259Z,12.18
2017-06-02T12:35:40.936Z,11.02
2017-06-02T12:38:10.640Z,9.24
2017-06-02T12:40:39.737Z,11.64
2017-06-02T12:43:10.051Z,13.34
2017-06-02T12:45:39.571Z,10.98
2017-06-02T12:48:08.863Z,12.56
2017-06-02T12:50:39.291Z,12.22
2017-06-02T12:53:08.438Z,13.00
2017-06-02T12:55:37.575Z,8.64
2017-06-02T12:58:06.658Z,8.58
2017-06-02T13:00:36.701Z,10.22
2017-06-02T13:03:06.264Z,10.08
2017-06-02T13:05:35.608Z,10.24
2017-06-02T13:08:05.110Z,9.68
2017-06-02T13:10:37.491Z,10.92
2017-06-02T13:13:06.680Z,10.70
2017-06-02T13:15:35.778Z,13.20
2017-06-02T13:18:04.906Z,13.50
2017-06-02T13:20:34.011Z,14.44
2017-06-02T13:23:03.261Z,11.80
2017-06-02T13:25:33.179Z,15.52
2017-06-02T13:28:02.379Z,20.30
2017-06-02T13:30:31.677Z,12.32
2017-06-02T13:33:00.795Z,12.48
2017-06-02T13:35:30.271Z,11.52
2017-06-02T13:37:59.391Z,12.66
2017-06-02T13:40:28.566Z,11.04
2017-06-02T13:42:57.717Z,11.88
2017-06-02T13:45:26.797Z,13.40
2017-06-02T13:47:56.150Z,12.54
2017-06-02T13:50:25.346Z,12.44
2017-06-02T13:52:54.547Z,10.78
2017-06-02T13:55:23.675Z,8.28
2017-06-02T13:57:52.839Z,9.02
2017-06-02T14:00:22.319Z,12.38
2017-06-02T14:02:51.543Z,8.72
2017-06-02T14:05:20.641Z,10.50
2017-06-02T14:07:49.762Z,7.86
2017-06-02T14:10:18.939Z,12.68
2017-06-02T14:12:48.231Z,14.22
2017-06-02T14:15:17.343Z,13.84
2017-06-02T14:17:46.623Z,13.26
2017-06-02T14:20:15.923Z,13.16
2017-06-02T14:22:45.126Z,11.20
2017-06-02T14:25:14.227Z,13.20
2017-06-02T14:27:43.348Z,11.34
2017-06-02T14:30:12.451Z,11.90
2017-06-02T14:32:41.927Z,11.54
2017-06-02T14:35:11.028Z,11.56
2017-06-02T14:37:40.209Z,10.48
2017-06-02T14:40:09.323Z,8.44
2017-06-02T14:42:38.422Z,11.44
2017-06-02T14:45:07.763Z,10.86
2017-06-02T14:47:36.867Z,11.60
2017-06-02T14:50:06.283Z,11.96
2017-06-02T14:52:35.398Z,11.14
2017-06-02T14:55:04.485Z,10.98
2017-06-02T14:57:33.619Z,10.34
2017-06-02T15:00:02.915Z,9.42
2017-06-02T15:02:32.177Z,10.38
2017-06-02T15:05:01.387Z,11.82
2017-06-02T15:07:30.525Z,11.38
2017-06-02T15:09:59.593Z,11.60
2017-06-02T15:12:28.762Z,13.10
2017-06-02T15:14:57.895Z,12.06
2017-06-02T15:17:27.066Z,13.32
2017-06-02T15:19:56.352Z,17.36
2017-06-02T15:22:25.549Z,16.90
2017-06-02T15:24:54.642Z,17.92
2017-06-02T15:27:23.831Z,20.26
2017-06-02T15:29:53.030Z,20.98
2017-06-02T15:32:22.158Z,19.40
2017-06-02T15:34:51.327Z,19.76
2017-06-02T15:37:20.631Z,19.82
2017-06-02T15:39:49.878Z,19.62
2017-06-02T15:42:18.987Z,18.46
2017-06-02T15:44:48.120Z,19.52
2017-06-02T15:47:17.231Z,19.64
2017-06-02T15:49:46.578Z,25.26
2017-06-02T15:52:15.680Z,26.56
2017-06-02T15:54:44.915Z,23.12
2017-06-02T15:57:14.011Z,23.88
2017-06-02T15:59:43.131Z,23.56
2017-06-02T16:02:12.371Z,22.22
2017-06-02T16:04:41.471Z,22.18
2017-06-02T16:07:10.588Z,23.70
2017-06-02T16:09:39.730Z,21.96
2017-06-02T16:12:08.826Z,19.22
2017-06-02T16:14:38.065Z,19.44
2017-06-02T16:17:07.185Z,18.98
2017-06-02T16:19:36.290Z,18.82
2017-06-02T16:22:05.414Z,23.68
2017-06-02T16:24:34.535Z,22.10
2017-06-02T16:27:03.664Z,18.02
2017-06-02T16:29:32.812Z,19.32
2017-06-02T16:32:02.066Z,21.18
2017-06-02T16:34:31.184Z,18.64
2017-06-02T16:37:00.291Z,23.18
2017-06-02T16:39:29.534Z,20.08
2017-06-02T16:41:58.611Z,28.84
2017-06-02T16:44:27.726Z,21.78
2017-06-02T16:46:56.831Z,24.36
2017-06-02T16:49:26.294Z,19.28
2017-06-02T16:51:55.407Z,15.26
2017-06-02T16:54:24.499Z,17.84
2017-06-02T16:56:53.630Z,21.96
2017-06-02T16:59:22.825Z,22.80
2017-06-02T17:01:51.192Z,20.58
2017-06-02T17:04:20.382Z,29.12
2017-06-02T17:06:49.670Z,17.58
2017-06-02T17:09:18.878Z,15.64
2017-06-02T17:11:47.975Z,26.48
2017-06-02T17:14:17.110Z,26.38
2017-06-02T17:16:46.219Z,28.00
2017-06-02T17:19:15.356Z,31.08
2017-06-02T17:21:44.439Z,32.30
2017-06-02T17:24:13.564Z,32.64
2017-06-02T17:26:42.649Z,27.22
2017-06-02T17:29:12.142Z,17.30
2017-06-02T17:31:41.237Z,19.04
2017-06-02T17:34:10.346Z,16.34
2017-06-02T17:36:39.486Z,16.60
2017-06-02T17:39:08.599Z,14.38
2017-06-02T17:41:38.051Z,12.26
2017-06-02T17:44:07.147Z,13.16
2017-06-02T17:46:36.426Z,13.44
2017-06-02T17:49:05.546Z,13.76
2017-06-02T17:51:34.643Z,10.10
2017-06-02T17:54:03.766Z,9.64
2017-06-02T17:56:32.862Z,8.64
2017-06-02T17:59:01.978Z,8.96
2017-06-02T18:01:31.195Z,7.82
2017-06-02T18:04:00.605Z,6.86
2017-06-02T18:06:29.658Z,8.02
2017-06-02T18:08:58.787Z,7.82
2017-06-02T18:11:27.979Z,7.22
2017-06-02T18:13:57.186Z,8.34
2017-06-02T18:16:26.480Z,6.94
2017-06-02T18:18:55.581Z,12.58
2017-06-02T18:21:24.689Z,8.44
2017-06-02T18:23:53.792Z,7.96
2017-06-02T18:26:23.013Z,6.38
2017-06-02T18:28:53.499Z,10.52
2017-06-02T18:31:22.592Z,6.14
2017-06-02T18:33:52.014Z,8.54
2017-06-02T18:36:21.179Z,5.92
2017-06-02T18:38:50.283Z,9.82
2017-06-02T18:41:19.386Z,5.56
2017-06-02T18:43:48.446Z,5.68
2017-06-02T18:46:17.671Z,4.62
2017-06-02T18:48:46.743Z,5.26
2017-06-02T18:51:15.880Z,6.16
2017-06-02T18:53:44.989Z,4.82
2017-06-02T18:56:14.066Z,5.22
2017-06-02T18:58:43.159Z,4.54
2017-06-02T19:01:12.386Z,5.20
2017-06-02T19:03:41.508Z,3.74
2017-06-02T19:06:10.827Z,4.70
2017-06-02T19:08:40.035Z,4.66
2017-06-02T19:11:09.085Z,4.72
2017-06-02T19:13:38.190Z,4.94
2017-06-02T19:16:07.267Z,5.76
2017-06-02T19:18:36.466Z,6.06
2017-06-02T19:21:05.612Z,4.94
2017-06-02T19:23:34.704Z,5.16
2017-06-02T19:26:03.862Z,7.32
2017-06-02T19:28:32.968Z,7.84
2017-06-02T19:31:02.184Z,4.78
2017-06-02T19:33:31.262Z,5.08
2017-06-02T19:36:00.343Z,5.14
2017-06-02T19:38:29.495Z,6.20
2017-06-02T19:40:58.610Z,7.50
2017-06-02T19:43:28.092Z,7.24
2017-06-02T19:45:57.271Z,5.18
2017-06-02T19:48:26.340Z,5.00
2017-06-02T19:50:55.468Z,4.34
2017-06-02T19:53:24.787Z,5.22
2017-06-02T19:55:53.973Z,4.68
2017-06-02T19:58:23.040Z,5.70
2017-06-02T20:00:52.185Z,3.88
2017-06-02T20:03:21.269Z,6.48
2017-06-02T20:05:50.547Z,5.56
2017-06-02T20:08:19.629Z,5.62
2017-06-02T20:10:48.683Z,5.70
2017-06-02T20:13:17.986Z,5.44
2017-06-02T20:15:47.058Z,4.78
2017-06-02T20:18:16.153Z,5.94
2017-06-02T20:20:45.311Z,5.72
2017-06-02T20:23:14.616Z,5.74
2017-06-02T20:25:43.687Z,5.52
2017-06-02T20:28:12.806Z,5.96
2017-06-02T20:30:42.108Z,4.60
2017-06-02T20:33:11.159Z,5.20
2017-06-02T20:35:40.274Z,4.66
2017-06-02T20:38:09.526Z,5.26
2017-06-02T20:40:39.151Z,5.62
2017-06-02T20:43:08.302Z,5.00
2017-06-02T20:45:37.605Z,5.16
2017-06-02T20:48:06.671Z,4.82
2017-06-02T20:50:35.748Z,4.74
2017-06-02T20:53:04.883Z,4.14
2017-06-02T20:55:33.950Z,5.48
2017-06-02T20:58:03.056Z,5.06
2017-06-02T21:00:32.163Z,4.30
2017-06-02T21:03:01.458Z,4.80
2017-06-02T21:05:30.557Z,4.26
2017-06-02T21:07:59.652Z,4.20
2017-06-02T21:10:28.844Z,4.06
2017-06-02T21:12:57.938Z,5.10
2017-06-02T21:15:27.242Z,3.88
2017-06-02T21:17:56.334Z,3.24
2017-06-02T21:20:25.431Z,3.52
2017-06-02T21:22:54.829Z,3.82
2017-06-02T21:25:23.931Z,3.12
2017-06-02T21:27:53.025Z,3.62
2017-06-02T21:30:22.108Z,3.78
2017-06-02T21:32:51.220Z,3.22
2017-06-02T21:35:20.308Z,3.68
2017-06-02T21:37:49.357Z,4.42
2017-06-02T21:40:18.503Z,4.18
2017-06-02T21:42:47.612Z,3.58
2017-06-02T21:45:16.707Z,5.96
2017-06-02T21:47:46.012Z,5.90
2017-06-02T21:50:15.183Z,3.80
2017-06-02T21:52:44.608Z,3.76
2017-06-02T21:55:13.660Z,4.32
2017-06-02T21:57:42.777Z,3.10
2017-06-02T22:00:11.859Z,4.28
2017-06-02T22:02:40.970Z,3.88
2017-06-02T22:05:10.387Z,3.16
2017-06-02T22:07:40.500Z,3.22
2017-06-02T22:10:09.590Z,3.98
2017-06-02T22:12:38.675Z,4.84
2017-06-02T22:15:07.977Z,4.82
2017-06-02T22:17:37.048Z,5.44
2017-06-02T22:20:06.584Z,3.02
2017-06-02T22:22:35.658Z,3.30
2017-06-02T22:25:04.767Z,4.56
2017-06-02T22:27:33.964Z,3.90
2017-06-02T22:30:03.997Z,3.68
2017-06-02T22:32:33.285Z,4.42
2017-06-02T22:35:02.360Z,3.90
2017-06-02T22:37:31.467Z,3.80
2017-06-02T22:40:00.590Z,4.28
2017-06-02T22:42:29.766Z,5.42
2017-06-02T22:44:58.847Z,5.60
2017-06-02T22:47:27.930Z,5.84
2017-06-02T22:49:57.252Z,4.42
2017-06-02T22:52:26.377Z,5.52
2017-06-02T22:54:55.540Z,8.04
2017-06-02T22:57:24.730Z,8.72
2017-06-02T22:59:53.785Z,6.80
2017-06-02T23:02:22.939Z,6.10
2017-06-02T23:04:52.016Z,5.74
2017-06-02T23:07:21.523Z,7.34
2017-06-02T23:10:23.115Z,5.77
2017-06-02T23:12:51.657Z,5.23
2017-06-02T23:15:20.044Z,4.57
2017-06-02T23:17:48.582Z,7.90
2017-06-02T23:20:16.895Z,4.23
2017-06-02T23:22:45.208Z,6.83
2017-06-02T23:25:13.550Z,5.07
2017-06-02T23:27:41.870Z,5.03
2017-06-02T23:30:10.215Z,5.57
2017-06-02T23:32:38.579Z,4.20
2017-06-02T23:35:07.671Z,4.70
2017-06-02T23:37:36.053Z,4.97
2017-06-02T23:40:05.761Z,4.40
2017-06-02T23:42:34.342Z,5.33
2017-06-02T23:45:02.765Z,6.17
2017-06-02T23:47:31.306Z,4.53
2017-06-02T23:49:59.792Z,4.43
2017-06-02T23:52:28.162Z,4.30
2017-06-02T23:54:56.643Z,6.10
2017-06-02T23:57:24.958Z,5.30
2017-06-02T23:59:53.298Z,3.83
